메인 페이지
METAR-TAF:

METAR-TAF

공항 :

그린우드, 미시시피, 미국

위도: 33-29-33N, 경도: 090-05-01W, 고도: 47m

현재 날씨관측

예보는 24분 전, 12:14시(UTC)에 발표되었습니다.
동북동3kt
온도 -3°C
습도 93%
기압 1030 hPa
시정: 0.4km
어는 안개

METAR: KGWO 111214Z AUTO 06003KT 1/4SM FZFG VV002 M03/M04 A3041 RMK AO2 T10331039

시각: 06:38 (12:38 UTC)

예보

예보는 1 시간 16분 전, 11:22시(UTC)에 발표되었습니다.
예보 대상 시간: 11일 12시부터 12일 12시까지 (UTC)
kt
시정: 0.4km
고도 200ft 상공
어는 안개
11일 1500시부터 (UTC)
kt
시정: 6.4km
고도 200ft 상공 구름 조금
박무
11일 1600시부터 (UTC)
남남서5kt
시정: 10km
고도 25000ft 상공 구름 보통

TAF: KGWO 111122Z 1112/1212 00000KT 1/4SM FZFG VV002 FM111500 00000KT 4SM BR FEW002 FM111600 20005KT P6SM SCT250

4,000개 이상의 공항 관측 자료 및 예보 (METAR 및 TAF 보고).

지도상에서 검색 가능한 기상관측소가 노란 점과 빨간 점으로 표시되어 있습니다.

기상관측소 명을 보려면 표시 위로 마우스를 이동하세요.

날씨 관측과 예보를 보려면 클릭하세요.

지도 변경 : 확대하려면 엑스 표시가 있는 녹색 버튼, 축소하려면 빼기 표시가 있는 녹색 버튼, 다음 페이지의 지도를 보려면 녹색 화살표를 클릭하세요.


METAR-TAF: